This is the latest recevied weather packets stored in our database for station/object JF2ZGN-13. If no packets are shown the sender has not sent any weather packets the latest 10 day(s).
| Time | Temp. | Humidity | Pressure | Rain* | Wind** | Luminosity | Snow |
|---|---|---|---|---|---|---|---|
| 1787748472 | 24.44° C | 44% | 909.1 hPa | 0 mm | - | - | - |
| 1787747870 | 24.44° C | 43% | 909.2 hPa | 0 mm | - | - | - |
| 1787747270 | 24.44° C | 41% | 908.9 hPa | 0 mm | - | - | - |
| 1787746669 | 24.44° C | 41% | 908.9 hPa | 0 mm | - | - | - |
| 1787746069 | 23.89° C | 41% | 909 hPa | 0 mm | - | - | - |
| 1787745468 | 24.44° C | 39% | 909.1 hPa | 0 mm | - | - | - |
| 1787744868 | 24.44° C | 37% | 908.7 hPa | 0 mm | - | - | - |
| 1787744267 | 24.44° C | 38% | 908.9 hPa | 0 mm | - | - | - |
| 1787743667 | 24.44° C | 39% | 908.7 hPa | 0 mm | - | - | - |
| 1787743066 | 23.89° C | 41% | 908.7 hPa | 0 mm | - | - | - |
| 1787742465 | 22.78° C | 47% | 908.7 hPa | 0 mm | - | - | - |
| 1787741865 | 21.67° C | 66% | 908.8 hPa | 0 mm | - | - | - |
| 1787741264 | 21.11° C | 72% | 908.8 hPa | 0 mm | - | - | - |
| 1787740664 | 21.67° C | 66% | 908.5 hPa | 0 mm | - | - | - |
| 1787740063 | 22.22° C | 63% | 908.8 hPa | 0 mm | - | - | - |
| 1787739463 | 22.78° C | 55% | 908.7 hPa | 0 mm | - | - | - |
| 1787738862 | 22.78° C | 61% | 908.4 hPa | 0 mm | - | - | - |
| 1787738261 | 23.33° C | 51% | 908.2 hPa | 0 mm | - | - | - |
| 1787737661 | 23.33° C | 49% | 908.3 hPa | 0 mm | - | - | - |
| 1787737061 | 23.33° C | 52% | 908.2 hPa | 0 mm | - | - | - |
| 1787735858 | 23.33° C | 51% | 908.6 hPa | 0 mm | - | - | - |
| 1787735258 | 23.33° C | 52% | 908.6 hPa | 0 mm | - | - | - |
| 1787734658 | 23.89° C | 52% | 908.5 hPa | 0 mm | - | - | - |
| 1787734057 | 23.89° C | 52% | 908.5 hPa | 0 mm | - | - | - |
| 1787733456 | 24.44° C | 51% | 908.5 hPa | 0 mm | - | - | - |
* Rain since midnight (hover to see other rain measurements)
** Current wind speed in m/s (hover to see current wind gust speed)